sensor_id;sensor_type;location;lat;lon;timestamp;temperature;humidity
10901;DHT22;5503;53.208;10.392;2023-02-15T00:01:28;6.50;69.20
10901;DHT22;5503;53.208;10.392;2023-02-15T00:03:54;6.60;72.30
10901;DHT22;5503;53.208;10.392;2023-02-15T00:06:21;6.70;67.00
10901;DHT22;5503;53.208;10.392;2023-02-15T00:08:48;6.70;66.50
10901;DHT22;5503;53.208;10.392;2023-02-15T00:11:17;6.70;65.90
10901;DHT22;5503;53.208;10.392;2023-02-15T00:14:07;6.60;66.70
10901;DHT22;5503;53.208;10.392;2023-02-15T00:16:34;6.60;70.40
10901;DHT22;5503;53.208;10.392;2023-02-15T00:19:01;6.30;72.90
10901;DHT22;5503;53.208;10.392;2023-02-15T00:21:29;5.90;89.60
10901;DHT22;5503;53.208;10.392;2023-02-15T00:23:56;6.60;92.80
10901;DHT22;5503;53.208;10.392;2023-02-15T00:26:23;6.10;93.20
10901;DHT22;5503;53.208;10.392;2023-02-15T00:28:50;6.20;86.60
10901;DHT22;5503;53.208;10.392;2023-02-15T00:31:19;6.10;87.80
10901;DHT22;5503;53.208;10.392;2023-02-15T00:33:46;5.90;90.60
10901;DHT22;5503;53.208;10.392;2023-02-15T00:36:13;5.60;94.30
10901;DHT22;5503;53.208;10.392;2023-02-15T00:38:40;5.80;97.20
10901;DHT22;5503;53.208;10.392;2023-02-15T00:41:08;5.90;94.90
10901;DHT22;5503;53.208;10.392;2023-02-15T00:43:35;6.00;92.60
10901;DHT22;5503;53.208;10.392;2023-02-15T00:46:03;6.20;87.70
10901;DHT22;5503;53.208;10.392;2023-02-15T00:48:32;6.20;76.80
10901;DHT22;5503;53.208;10.392;2023-02-15T00:50:59;6.10;74.00
10901;DHT22;5503;53.208;10.392;2023-02-15T00:53:28;6.10;78.90
10901;DHT22;5503;53.208;10.392;2023-02-15T00:55:55;6.00;79.40
10901;DHT22;5503;53.208;10.392;2023-02-15T00:58:22;5.90;87.40
10901;DHT22;5503;53.208;10.392;2023-02-15T01:00:49;5.80;86.90
10901;DHT22;5503;53.208;10.392;2023-02-15T01:03:17;5.50;90.90
10901;DHT22;5503;53.208;10.392;2023-02-15T01:05:46;5.70;94.50
10901;DHT22;5503;53.208;10.392;2023-02-15T01:08:14;5.70;91.30
10901;DHT22;5503;53.208;10.392;2023-02-15T01:10:41;5.70;90.90
10901;DHT22;5503;53.208;10.392;2023-02-15T01:13:09;5.70;90.40
10901;DHT22;5503;53.208;10.392;2023-02-15T01:15:36;7.00;90.10
10901;DHT22;5503;53.208;10.392;2023-02-15T01:18:03;5.50;91.20
10901;DHT22;5503;53.208;10.392;2023-02-15T01:20:34;5.60;90.60
10901;DHT22;5503;53.208;10.392;2023-02-15T01:23:03;5.60;86.80
10901;DHT22;5503;53.208;10.392;2023-02-15T01:25:30;5.80;80.30
10901;DHT22;5503;53.208;10.392;2023-02-15T01:27:57;5.80;80.70
10901;DHT22;5503;53.208;10.392;2023-02-15T01:30:24;5.90;74.60
10901;DHT22;5503;53.208;10.392;2023-02-15T01:32:51;7.90;77.60
10901;DHT22;5503;53.208;10.392;2023-02-15T01:35:18;5.50;81.00
10901;DHT22;5503;53.208;10.392;2023-02-15T01:37:44;5.50;85.60
10901;DHT22;5503;53.208;10.392;2023-02-15T01:40:15;5.60;88.00
10901;DHT22;5503;53.208;10.392;2023-02-15T01:42:42;5.50;84.80
10901;DHT22;5503;53.208;10.392;2023-02-15T01:45:18;5.60;86.80
10901;DHT22;5503;53.208;10.392;2023-02-15T01:47:50;5.80;76.80
10901;DHT22;5503;53.208;10.392;2023-02-15T01:50:22;5.80;69.40
10901;DHT22;5503;53.208;10.392;2023-02-15T01:52:53;5.70;67.80
10901;DHT22;5503;53.208;10.392;2023-02-15T01:55:24;5.50;70.50
10901;DHT22;5503;53.208;10.392;2023-02-15T01:57:51;5.30;77.20
10901;DHT22;5503;53.208;10.392;2023-02-15T02:00:19;4.90;86.60
10901;DHT22;5503;53.208;10.392;2023-02-15T02:02:49;4.80;95.80
10901;DHT22;5503;53.208;10.392;2023-02-15T02:05:17;4.70;99.90
10901;DHT22;5503;53.208;10.392;2023-02-15T02:07:45;4.70;99.90
10901;DHT22;5503;53.208;10.392;2023-02-15T02:12:52;4.70;99.10
10901;DHT22;5503;53.208;10.392;2023-02-15T02:15:25;4.70;98.80
10901;DHT22;5503;53.208;10.392;2023-02-15T02:18:07;4.40;99.90
10901;DHT22;5503;53.208;10.392;2023-02-15T02:23:56;4.70;99.90
10901;DHT22;5503;53.208;10.392;2023-02-15T02:30:15;4.80;95.60
10901;DHT22;5503;53.208;10.392;2023-02-15T02:33:07;5.00;90.80
10901;DHT22;5503;53.208;10.392;2023-02-15T02:35:39;4.60;88.90
10901;DHT22;5503;53.208;10.392;2023-02-15T02:38:15;4.20;96.00
10901;DHT22;5503;53.208;10.392;2023-02-15T02:40:52;4.40;99.90
10901;DHT22;5503;53.208;10.392;2023-02-15T02:43:28;4.60;97.70
10901;DHT22;5503;53.208;10.392;2023-02-15T02:45:59;4.90;92.50
10901;DHT22;5503;53.208;10.392;2023-02-15T02:48:32;4.90;86.90
10901;DHT22;5503;53.208;10.392;2023-02-15T02:50:59;5.10;83.40
10901;DHT22;5503;53.208;10.392;2023-02-15T02:53:28;5.10;79.30
10901;DHT22;5503;53.208;10.392;2023-02-15T02:55:57;5.00;78.80
10901;DHT22;5503;53.208;10.392;2023-02-15T02:58:31;5.00;77.40
10901;DHT22;5503;53.208;10.392;2023-02-15T03:01:03;5.00;82.70
10901;DHT22;5503;53.208;10.392;2023-02-15T03:03:36;5.10;82.60
10901;DHT22;5503;53.208;10.392;2023-02-15T03:06:07;4.90;78.80
10901;DHT22;5503;53.208;10.392;2023-02-15T03:08:39;5.00;79.70
10901;DHT22;5503;53.208;10.392;2023-02-15T03:11:09;4.80;77.20
10901;DHT22;5503;53.208;10.392;2023-02-15T03:13:39;4.70;80.40
10901;DHT22;5503;53.208;10.392;2023-02-15T03:16:09;4.40;86.40
10901;DHT22;5503;53.208;10.392;2023-02-15T03:18:55;4.40;92.30
10901;DHT22;5503;53.208;10.392;2023-02-15T03:21:28;5.80;93.80
10901;DHT22;5503;53.208;10.392;2023-02-15T03:24:00;4.60;90.50
10901;DHT22;5503;53.208;10.392;2023-02-15T03:26:30;4.50;86.20
10901;DHT22;5503;53.208;10.392;2023-02-15T03:28:59;4.60;81.50
10901;DHT22;5503;53.208;10.392;2023-02-15T03:31:29;4.10;81.40
10901;DHT22;5503;53.208;10.392;2023-02-15T03:34:02;4.20;92.20
10901;DHT22;5503;53.208;10.392;2023-02-15T03:36:36;4.40;90.60
10901;DHT22;5503;53.208;10.392;2023-02-15T03:39:10;4.30;88.10
10901;DHT22;5503;53.208;10.392;2023-02-15T03:41:42;4.30;86.40
10901;DHT22;5503;53.208;10.392;2023-02-15T03:44:15;4.50;84.30
10901;DHT22;5503;53.208;10.392;2023-02-15T03:46:47;4.30;78.90
10901;DHT22;5503;53.208;10.392;2023-02-15T03:49:20;4.10;87.40
10901;DHT22;5503;53.208;10.392;2023-02-15T03:51:50;4.10;90.50
10901;DHT22;5503;53.208;10.392;2023-02-15T03:54:20;4.10;90.20
10901;DHT22;5503;53.208;10.392;2023-02-15T03:57:02;3.80;90.80
10901;DHT22;5503;53.208;10.392;2023-02-15T03:59:46;3.80;95.10
10901;DHT22;5503;53.208;10.392;2023-02-15T04:02:36;3.90;94.90
10901;DHT22;5503;53.208;10.392;2023-02-15T04:05:06;4.10;91.70
10901;DHT22;5503;53.208;10.392;2023-02-15T04:07:33;4.00;85.20
10901;DHT22;5503;53.208;10.392;2023-02-15T04:10:00;3.90;85.90
10901;DHT22;5503;53.208;10.392;2023-02-15T04:12:44;3.90;88.60
10901;DHT22;5503;53.208;10.392;2023-02-15T04:15:12;3.90;88.50
10901;DHT22;5503;53.208;10.392;2023-02-15T04:17:56;4.00;87.80
10901;DHT22;5503;53.208;10.392;2023-02-15T04:20:24;3.10;82.30
10901;DHT22;5503;53.208;10.392;2023-02-15T04:23:08;4.10;74.80
10901;DHT22;5503;53.208;10.392;2023-02-15T04:25:53;3.50;82.10
10901;DHT22;5503;53.208;10.392;2023-02-15T04:28:19;3.80;91.00
10901;DHT22;5503;53.208;10.392;2023-02-15T04:30:46;3.80;87.00
10901;DHT22;5503;53.208;10.392;2023-02-15T04:33:13;3.70;87.80
10901;DHT22;5503;53.208;10.392;2023-02-15T04:35:43;3.60;85.40
10901;DHT22;5503;53.208;10.392;2023-02-15T04:38:11;3.30;89.20
10901;DHT22;5503;53.208;10.392;2023-02-15T04:40:38;3.20;95.30
10901;DHT22;5503;53.208;10.392;2023-02-15T04:43:05;3.40;98.60
10901;DHT22;5503;53.208;10.392;2023-02-15T04:45:32;3.10;97.30
10901;DHT22;5503;53.208;10.392;2023-02-15T04:47:58;3.30;97.30
10901;DHT22;5503;53.208;10.392;2023-02-15T04:50:25;3.50;93.20
10901;DHT22;5503;53.208;10.392;2023-02-15T04:52:54;4.90;88.60
10901;DHT22;5503;53.208;10.392;2023-02-15T04:55:21;3.50;87.30
10901;DHT22;5503;53.208;10.392;2023-02-15T04:57:48;3.60;82.10
10901;DHT22;5503;53.208;10.392;2023-02-15T05:00:15;3.30;87.00
10901;DHT22;5503;53.208;10.392;2023-02-15T05:02:42;3.10;82.40
10901;DHT22;5503;53.208;10.392;2023-02-15T05:05:09;3.00;85.50
10901;DHT22;5503;53.208;10.392;2023-02-15T05:07:38;3.00;90.10
10901;DHT22;5503;53.208;10.392;2023-02-15T05:10:08;2.80;90.50
10901;DHT22;5503;53.208;10.392;2023-02-15T05:12:35;2.90;93.70
10901;DHT22;5503;53.208;10.392;2023-02-15T05:15:02;3.30;91.10
10901;DHT22;5503;53.208;10.392;2023-02-15T05:17:28;3.10;79.30
10901;DHT22;5503;53.208;10.392;2023-02-15T05:19:55;3.20;81.00
10901;DHT22;5503;53.208;10.392;2023-02-15T05:22:22;3.30;77.20
10901;DHT22;5503;53.208;10.392;2023-02-15T05:24:49;5.00;76.10
10901;DHT22;5503;53.208;10.392;2023-02-15T05:27:35;3.60;67.30
10901;DHT22;5503;53.208;10.392;2023-02-15T05:30:20;3.60;63.00
10901;DHT22;5503;53.208;10.392;2023-02-15T05:32:46;3.20;69.00
10901;DHT22;5503;53.208;10.392;2023-02-15T05:35:15;3.00;74.90
10901;DHT22;5503;53.208;10.392;2023-02-15T05:37:42;3.00;85.40
10901;DHT22;5503;53.208;10.392;2023-02-15T05:40:09;3.00;89.90
10901;DHT22;5503;53.208;10.392;2023-02-15T05:42:38;2.90;87.30
10901;DHT22;5503;53.208;10.392;2023-02-15T05:45:06;3.10;90.50
10901;DHT22;5503;53.208;10.392;2023-02-15T05:47:33;2.90;82.50
10901;DHT22;5503;53.208;10.392;2023-02-15T05:49:59;3.00;87.60
10901;DHT22;5503;53.208;10.392;2023-02-15T05:52:26;2.90;88.10
10901;DHT22;5503;53.208;10.392;2023-02-15T05:54:53;2.60;92.50
10901;DHT22;5503;53.208;10.392;2023-02-15T05:57:20;2.60;95.40
10901;DHT22;5503;53.208;10.392;2023-02-15T05:59:48;2.60;99.90
10901;DHT22;5503;53.208;10.392;2023-02-15T06:02:15;3.00;96.80
10901;DHT22;5503;53.208;10.392;2023-02-15T06:04:42;3.10;88.80
10901;DHT22;5503;53.208;10.392;2023-02-15T06:07:09;3.10;82.40
10901;DHT22;5503;53.208;10.392;2023-02-15T06:09:36;2.80;89.50
10901;DHT22;5503;53.208;10.392;2023-02-15T06:12:03;2.90;91.70
10901;DHT22;5503;53.208;10.392;2023-02-15T06:14:29;2.80;92.90
10901;DHT22;5503;53.208;10.392;2023-02-15T06:16:58;3.00;94.20
10901;DHT22;5503;53.208;10.392;2023-02-15T06:19:25;3.10;91.00
10901;DHT22;5503;53.208;10.392;2023-02-15T06:21:51;3.10;89.90
10901;DHT22;5503;53.208;10.392;2023-02-15T06:24:18;3.10;87.60
10901;DHT22;5503;53.208;10.392;2023-02-15T06:26:45;3.30;83.10
10901;DHT22;5503;53.208;10.392;2023-02-15T06:29:12;3.50;76.20
10901;DHT22;5503;53.208;10.392;2023-02-15T06:31:39;3.40;74.10
10901;DHT22;5503;53.208;10.392;2023-02-15T06:34:07;3.30;77.10
10901;DHT22;5503;53.208;10.392;2023-02-15T06:36:34;3.40;79.80
10901;DHT22;5503;53.208;10.392;2023-02-15T06:39:02;5.60;80.00
10901;DHT22;5503;53.208;10.392;2023-02-15T06:41:29;3.40;71.80
10901;DHT22;5503;53.208;10.392;2023-02-15T06:43:56;3.30;75.70
10901;DHT22;5503;53.208;10.392;2023-02-15T06:46:23;3.30;76.90
10901;DHT22;5503;53.208;10.392;2023-02-15T06:48:50;5.40;75.00
10901;DHT22;5503;53.208;10.392;2023-02-15T06:51:19;2.80;84.70
10901;DHT22;5503;53.208;10.392;2023-02-15T06:53:45;2.40;93.80
10901;DHT22;5503;53.208;10.392;2023-02-15T06:56:12;2.30;99.90
10901;DHT22;5503;53.208;10.392;2023-02-15T06:58:40;2.60;97.30
10901;DHT22;5503;53.208;10.392;2023-02-15T07:01:08;2.70;96.60
10901;DHT22;5503;53.208;10.392;2023-02-15T07:03:36;2.70;95.50
10901;DHT22;5503;53.208;10.392;2023-02-15T07:06:04;2.50;98.10
10901;DHT22;5503;53.208;10.392;2023-02-15T07:08:35;2.60;98.20
10901;DHT22;5503;53.208;10.392;2023-02-15T07:11:02;2.60;96.10
10901;DHT22;5503;53.208;10.392;2023-02-15T07:13:43;2.70;98.80
10901;DHT22;5503;53.208;10.392;2023-02-15T07:16:10;2.70;97.80
10901;DHT22;5503;53.208;10.392;2023-02-15T07:18:37;2.70;96.80
10901;DHT22;5503;53.208;10.392;2023-02-15T07:21:05;2.10;94.70
10901;DHT22;5503;53.208;10.392;2023-02-15T07:23:35;2.10;95.00
10901;DHT22;5503;53.208;10.392;2023-02-15T07:26:02;2.10;99.90
10901;DHT22;5503;53.208;10.392;2023-02-15T07:28:29;2.20;99.90
10901;DHT22;5503;53.208;10.392;2023-02-15T07:30:56;2.40;99.90
10901;DHT22;5503;53.208;10.392;2023-02-15T07:33:23;2.50;98.40
10901;DHT22;5503;53.208;10.392;2023-02-15T07:35:53;2.40;94.90
10901;DHT22;5503;53.208;10.392;2023-02-15T07:38:21;2.40;99.00
10901;DHT22;5503;53.208;10.392;2023-02-15T07:40:50;3.20;99.90
10901;DHT22;5503;53.208;10.392;2023-02-15T07:43:17;2.10;99.90
10901;DHT22;5503;53.208;10.392;2023-02-15T07:45:44;2.10;99.90
10901;DHT22;5503;53.208;10.392;2023-02-15T07:48:11;2.40;99.90
10901;DHT22;5503;53.208;10.392;2023-02-15T07:50:37;2.70;99.90
10901;DHT22;5503;53.208;10.392;2023-02-15T07:53:04;2.90;94.40
10901;DHT22;5503;53.208;10.392;2023-02-15T07:55:31;3.10;81.60
10901;DHT22;5503;53.208;10.392;2023-02-15T07:57:59;3.40;76.90
10901;DHT22;5503;53.208;10.392;2023-02-15T08:00:26;3.40;60.30
10901;DHT22;5503;53.208;10.392;2023-02-15T08:02:56;3.30;65.10
10901;DHT22;5503;53.208;10.392;2023-02-15T08:05:42;3.10;70.10
10901;DHT22;5503;53.208;10.392;2023-02-15T08:08:11;3.30;78.60
10901;DHT22;5503;53.208;10.392;2023-02-15T08:10:58;3.20;74.20
10901;DHT22;5503;53.208;10.392;2023-02-15T08:13:45;3.40;65.80
10901;DHT22;5503;53.208;10.392;2023-02-15T08:16:20;3.50;65.80
10901;DHT22;5503;53.208;10.392;2023-02-15T08:18:46;3.50;61.80
10901;DHT22;5503;53.208;10.392;2023-02-15T08:21:13;3.50;62.00
10901;DHT22;5503;53.208;10.392;2023-02-15T08:23:40;3.40;74.90
10901;DHT22;5503;53.208;10.392;2023-02-15T08:26:07;3.10;74.60
10901;DHT22;5503;53.208;10.392;2023-02-15T08:28:34;3.00;85.40
10901;DHT22;5503;53.208;10.392;2023-02-15T08:31:06;3.00;94.40
10901;DHT22;5503;53.208;10.392;2023-02-15T08:33:33;2.90;96.40
10901;DHT22;5503;53.208;10.392;2023-02-15T08:36:04;3.20;96.70
10901;DHT22;5503;53.208;10.392;2023-02-15T08:38:31;3.30;91.80
10901;DHT22;5503;53.208;10.392;2023-02-15T08:41:09;3.60;81.30
10901;DHT22;5503;53.208;10.392;2023-02-15T08:43:36;3.80;56.50
10901;DHT22;5503;53.208;10.392;2023-02-15T08:46:04;4.00;53.70
10901;DHT22;5503;53.208;10.392;2023-02-15T08:48:31;3.90;61.30
10901;DHT22;5503;53.208;10.392;2023-02-15T08:50:59;3.90;64.00
10901;DHT22;5503;53.208;10.392;2023-02-15T08:53:31;3.50;71.10
10901;DHT22;5503;53.208;10.392;2023-02-15T08:55:58;3.70;78.50
10901;DHT22;5503;53.208;10.392;2023-02-15T08:58:25;3.90;75.00
10901;DHT22;5503;53.208;10.392;2023-02-15T09:00:52;4.00;71.60
10901;DHT22;5503;53.208;10.392;2023-02-15T09:03:20;1.80;67.00
10901;DHT22;5503;53.208;10.392;2023-02-15T09:05:47;3.90;66.00
10901;DHT22;5503;53.208;10.392;2023-02-15T09:08:13;3.90;71.40
10901;DHT22;5503;53.208;10.392;2023-02-15T09:10:41;3.90;79.50
10901;DHT22;5503;53.208;10.392;2023-02-15T09:13:07;4.00;77.70
10901;DHT22;5503;53.208;10.392;2023-02-15T09:15:34;4.00;68.20
10901;DHT22;5503;53.208;10.392;2023-02-15T09:18:02;4.00;61.50
10901;DHT22;5503;53.208;10.392;2023-02-15T09:20:35;4.20;68.80
10901;DHT22;5503;53.208;10.392;2023-02-15T09:23:02;4.10;62.90
10901;DHT22;5503;53.208;10.392;2023-02-15T09:25:29;4.50;66.30
10901;DHT22;5503;53.208;10.392;2023-02-15T09:27:56;4.70;53.10
10901;DHT22;5503;53.208;10.392;2023-02-15T09:30:23;4.80;43.20
10901;DHT22;5503;53.208;10.392;2023-02-15T09:32:50;4.90;41.50
10901;DHT22;5503;53.208;10.392;2023-02-15T09:35:17;5.00;33.10
10901;DHT22;5503;53.208;10.392;2023-02-15T09:37:45;4.60;38.20
10901;DHT22;5503;53.208;10.392;2023-02-15T09:40:13;4.30;59.40
10901;DHT22;5503;53.208;10.392;2023-02-15T09:43:07;4.10;73.60
10901;DHT22;5503;53.208;10.392;2023-02-15T09:48:41;4.10;82.30
10901;DHT22;5503;53.208;10.392;2023-02-15T09:54:25;4.20;80.90
10901;DHT22;5503;53.208;10.392;2023-02-15T09:56:58;4.50;70.80
10901;DHT22;5503;53.208;10.392;2023-02-15T09:59:33;4.40;66.20
10901;DHT22;5503;53.208;10.392;2023-02-15T10:02:13;4.40;75.00
10901;DHT22;5503;53.208;10.392;2023-02-15T10:04:53;4.60;81.10
10901;DHT22;5503;53.208;10.392;2023-02-15T10:07:43;4.80;75.20
10901;DHT22;5503;53.208;10.392;2023-02-15T10:10:21;4.60;77.10
10901;DHT22;5503;53.208;10.392;2023-02-15T10:13:06;4.90;74.40
10901;DHT22;5503;53.208;10.392;2023-02-15T10:15:50;4.90;61.60
10901;DHT22;5503;53.208;10.392;2023-02-15T10:18:38;4.80;72.00
10901;DHT22;5503;53.208;10.392;2023-02-15T10:21:17;5.10;69.50
10901;DHT22;5503;53.208;10.392;2023-02-15T10:26:48;4.60;82.20
10901;DHT22;5503;53.208;10.392;2023-02-15T10:29:24;5.00;85.80
10901;DHT22;5503;53.208;10.392;2023-02-15T10:32:00;5.30;72.50
10901;DHT22;5503;53.208;10.392;2023-02-15T10:34:34;5.40;62.50
10901;DHT22;5503;53.208;10.392;2023-02-15T10:37:31;5.50;60.10
10901;DHT22;5503;53.208;10.392;2023-02-15T10:40:08;5.60;60.90
10901;DHT22;5503;53.208;10.392;2023-02-15T10:42:48;5.60;59.50
10901;DHT22;5503;53.208;10.392;2023-02-15T10:45:25;5.70;56.90
10901;DHT22;5503;53.208;10.392;2023-02-15T10:48:12;5.90;50.20
10901;DHT22;5503;53.208;10.392;2023-02-15T10:50:52;6.20;52.70
10901;DHT22;5503;53.208;10.392;2023-02-15T10:53:30;6.30;44.80
10901;DHT22;5503;53.208;10.392;2023-02-15T10:56:09;6.70;42.10
10901;DHT22;5503;53.208;10.392;2023-02-15T10:58:52;7.00;15.30
10901;DHT22;5503;53.208;10.392;2023-02-15T11:01:25;7.20;9.80
10901;DHT22;5503;53.208;10.392;2023-02-15T11:07:02;6.70;17.70
10901;DHT22;5503;53.208;10.392;2023-02-15T11:09:36;6.50;27.20
10901;DHT22;5503;53.208;10.392;2023-02-15T11:12:09;6.60;25.90
10901;DHT22;5503;53.208;10.392;2023-02-15T11:14:43;6.40;32.00
10901;DHT22;5503;53.208;10.392;2023-02-15T11:17:15;6.30;41.10
10901;DHT22;5503;53.208;10.392;2023-02-15T11:19:50;5.40;44.50
10901;DHT22;5503;53.208;10.392;2023-02-15T11:22:18;6.40;39.50
10901;DHT22;5503;53.208;10.392;2023-02-15T11:24:46;6.60;27.50
10901;DHT22;5503;53.208;10.392;2023-02-15T11:27:20;6.40;32.80
10901;DHT22;5503;53.208;10.392;2023-02-15T11:29:54;6.60;40.30
10901;DHT22;5503;53.208;10.392;2023-02-15T11:32:23;6.90;33.00
10901;DHT22;5503;53.208;10.392;2023-02-15T11:34:55;7.10;21.40
10901;DHT22;5503;53.208;10.392;2023-02-15T11:37:27;7.20;24.30
10901;DHT22;5503;53.208;10.392;2023-02-15T11:39:55;8.10;21.10
10901;DHT22;5503;53.208;10.392;2023-02-15T11:42:23;9.40;27.80
10901;DHT22;5503;53.208;10.392;2023-02-15T11:44:58;7.80;30.00
10901;DHT22;5503;53.208;10.392;2023-02-15T11:47:25;8.10;15.20
10901;DHT22;5503;53.208;10.392;2023-02-15T11:49:53;8.30;9.20
10901;DHT22;5503;53.208;10.392;2023-02-15T11:52:20;9.50;4.40
10901;DHT22;5503;53.208;10.392;2023-02-15T11:54:49;10.40;1.00
10901;DHT22;5503;53.208;10.392;2023-02-15T11:57:22;8.90;1.00
10901;DHT22;5503;53.208;10.392;2023-02-15T11:59:55;9.00;1.00
10901;DHT22;5503;53.208;10.392;2023-02-15T12:02:23;9.10;1.00
10901;DHT22;5503;53.208;10.392;2023-02-15T12:04:55;9.10;1.00
10901;DHT22;5503;53.208;10.392;2023-02-15T12:07:25;9.30;1.00
10901;DHT22;5503;53.208;10.392;2023-02-15T12:09:58;9.50;1.00
10901;DHT22;5503;53.208;10.392;2023-02-15T12:12:28;9.90;1.00
10901;DHT22;5503;53.208;10.392;2023-02-15T12:14:58;9.90;1.00
10901;DHT22;5503;53.208;10.392;2023-02-15T12:17:28;9.90;1.00
10901;DHT22;5503;53.208;10.392;2023-02-15T12:19:57;9.80;1.00
10901;DHT22;5503;53.208;10.392;2023-02-15T12:22:26;10.00;1.00
10901;DHT22;5503;53.208;10.392;2023-02-15T12:24:56;10.20;1.00
10901;DHT22;5503;53.208;10.392;2023-02-15T12:27:27;10.40;1.00
10901;DHT22;5503;53.208;10.392;2023-02-15T12:29:59;10.80;1.00
10901;DHT22;5503;53.208;10.392;2023-02-15T12:32:30;10.60;1.00
10901;DHT22;5503;53.208;10.392;2023-02-15T12:35:01;10.90;1.00
10901;DHT22;5503;53.208;10.392;2023-02-15T12:37:30;10.90;1.00
10901;DHT22;5503;53.208;10.392;2023-02-15T12:39:58;10.60;1.00
10901;DHT22;5503;53.208;10.392;2023-02-15T12:42:27;10.50;1.00
10901;DHT22;5503;53.208;10.392;2023-02-15T12:45:01;10.90;1.00
10901;DHT22;5503;53.208;10.392;2023-02-15T12:47:29;10.90;1.00
10901;DHT22;5503;53.208;10.392;2023-02-15T12:50:12;10.70;1.00
10901;DHT22;5503;53.208;10.392;2023-02-15T12:52:44;10.90;1.00
10901;DHT22;5503;53.208;10.392;2023-02-15T12:55:20;11.10;1.00
10901;DHT22;5503;53.208;10.392;2023-02-15T12:57:47;10.80;1.00
10901;DHT22;5503;53.208;10.392;2023-02-15T13:00:28;10.40;1.00
10901;DHT22;5503;53.208;10.392;2023-02-15T13:02:58;10.70;1.00
10901;DHT22;5503;53.208;10.392;2023-02-15T13:05:29;10.80;1.00
10901;DHT22;5503;53.208;10.392;2023-02-15T13:07:59;10.70;1.00
10901;DHT22;5503;53.208;10.392;2023-02-15T13:10:29;11.10;1.00
10901;DHT22;5503;53.208;10.392;2023-02-15T13:12:57;11.70;1.00
10901;DHT22;5503;53.208;10.392;2023-02-15T13:15:28;11.70;1.00
10901;DHT22;5503;53.208;10.392;2023-02-15T13:17:57;11.70;1.00
10901;DHT22;5503;53.208;10.392;2023-02-15T13:20:26;11.20;1.00
10901;DHT22;5503;53.208;10.392;2023-02-15T13:22:59;10.90;1.00
10901;DHT22;5503;53.208;10.392;2023-02-15T13:25:31;10.80;1.00
10901;DHT22;5503;53.208;10.392;2023-02-15T13:28:02;11.00;1.00
10901;DHT22;5503;53.208;10.392;2023-02-15T13:30:34;13.50;1.00
10901;DHT22;5503;53.208;10.392;2023-02-15T13:33:03;11.30;1.00
10901;DHT22;5503;53.208;10.392;2023-02-15T13:35:39;11.10;1.00
10901;DHT22;5503;53.208;10.392;2023-02-15T13:38:20;11.00;1.00
10901;DHT22;5503;53.208;10.392;2023-02-15T13:40:53;11.10;1.00
10901;DHT22;5503;53.208;10.392;2023-02-15T13:43:33;13.40;1.00
10901;DHT22;5503;53.208;10.392;2023-02-15T13:46:17;11.10;1.00
10901;DHT22;5503;53.208;10.392;2023-02-15T13:48:55;10.90;1.00
10901;DHT22;5503;53.208;10.392;2023-02-15T13:51:30;11.30;1.00
10901;DHT22;5503;53.208;10.392;2023-02-15T13:54:14;11.50;1.00
10901;DHT22;5503;53.208;10.392;2023-02-15T13:56:56;11.90;1.00
10901;DHT22;5503;53.208;10.392;2023-02-15T14:02:46;11.40;1.00
10901;DHT22;5503;53.208;10.392;2023-02-15T14:05:29;11.90;1.00
10901;DHT22;5503;53.208;10.392;2023-02-15T14:08:08;12.10;1.00
10901;DHT22;5503;53.208;10.392;2023-02-15T14:10:46;11.70;1.00
10901;DHT22;5503;53.208;10.392;2023-02-15T14:16:36;11.70;1.00
10901;DHT22;5503;53.208;10.392;2023-02-15T14:19:16;12.40;1.00
10901;DHT22;5503;53.208;10.392;2023-02-15T14:21:50;11.20;1.00
10901;DHT22;5503;53.208;10.392;2023-02-15T14:24:27;10.90;1.00
10901;DHT22;5503;53.208;10.392;2023-02-15T14:27:04;11.40;1.00
10901;DHT22;5503;53.208;10.392;2023-02-15T14:29:44;10.70;1.00
10901;DHT22;5503;53.208;10.392;2023-02-15T14:32:16;10.30;1.00
10901;DHT22;5503;53.208;10.392;2023-02-15T14:34:50;11.30;1.00
10901;DHT22;5503;53.208;10.392;2023-02-15T14:37:23;10.20;1.00
10901;DHT22;5503;53.208;10.392;2023-02-15T14:39:56;10.20;1.00
10901;DHT22;5503;53.208;10.392;2023-02-15T14:42:47;10.30;1.00
10901;DHT22;5503;53.208;10.392;2023-02-15T14:45:22;10.40;1.00
10901;DHT22;5503;53.208;10.392;2023-02-15T14:47:56;10.20;1.00
10901;DHT22;5503;53.208;10.392;2023-02-15T14:50:43;10.30;1.00
10901;DHT22;5503;53.208;10.392;2023-02-15T14:53:33;10.20;1.00
10901;DHT22;5503;53.208;10.392;2023-02-15T14:56:20;9.90;7.60
10901;DHT22;5503;53.208;10.392;2023-02-15T14:58:59;9.80;11.00
10901;DHT22;5503;53.208;10.392;2023-02-15T15:01:28;9.80;11.40
10901;DHT22;5503;53.208;10.392;2023-02-15T15:03:58;9.80;11.30
10901;DHT22;5503;53.208;10.392;2023-02-15T15:06:29;10.00;8.00
10901;DHT22;5503;53.208;10.392;2023-02-15T15:09:00;10.10;3.70
10901;DHT22;5503;53.208;10.392;2023-02-15T15:11:40;10.10;2.10
10901;DHT22;5503;53.208;10.392;2023-02-15T15:14:08;11.70;1.00
10901;DHT22;5503;53.208;10.392;2023-02-15T15:16:50;10.20;1.00
10901;DHT22;5503;53.208;10.392;2023-02-15T15:22:30;9.90;8.60
10901;DHT22;5503;53.208;10.392;2023-02-15T15:24:57;9.90;7.80
10901;DHT22;5503;53.208;10.392;2023-02-15T15:27:43;9.90;9.20
10901;DHT22;5503;53.208;10.392;2023-02-15T15:42:54;10.00;2.90
10901;DHT22;5503;53.208;10.392;2023-02-15T15:45:46;10.20;4.40
10901;DHT22;5503;53.208;10.392;2023-02-15T15:48:35;11.50;1.00
10901;DHT22;5503;53.208;10.392;2023-02-15T15:51:09;10.30;1.00
10901;DHT22;5503;53.208;10.392;2023-02-15T15:53:40;12.80;1.00
10901;DHT22;5503;53.208;10.392;2023-02-15T15:56:13;10.30;1.00
10901;DHT22;5503;53.208;10.392;2023-02-15T15:58:45;10.30;1.00
10901;DHT22;5503;53.208;10.392;2023-02-15T16:01:12;10.20;1.00
10901;DHT22;5503;53.208;10.392;2023-02-15T16:03:49;10.00;1.00
10901;DHT22;5503;53.208;10.392;2023-02-15T16:06:27;10.00;1.00
10901;DHT22;5503;53.208;10.392;2023-02-15T16:08:54;10.00;1.00
10901;DHT22;5503;53.208;10.392;2023-02-15T16:11:24;9.90;1.00
10901;DHT22;5503;53.208;10.392;2023-02-15T16:13:52;9.90;1.00
10901;DHT22;5503;53.208;10.392;2023-02-15T16:16:21;9.80;1.00
10901;DHT22;5503;53.208;10.392;2023-02-15T16:18:49;9.60;2.10
10901;DHT22;5503;53.208;10.392;2023-02-15T16:21:19;9.30;10.70
10901;DHT22;5503;53.208;10.392;2023-02-15T16:24:20;9.30;12.60
10901;DHT22;5503;53.208;10.392;2023-02-15T16:27:00;9.80;11.30
10901;DHT22;5503;53.208;10.392;2023-02-15T16:29:34;9.30;8.80
10901;DHT22;5503;53.208;10.392;2023-02-15T16:32:02;9.30;5.90
10901;DHT22;5503;53.208;10.392;2023-02-15T16:34:31;9.30;6.50
10901;DHT22;5503;53.208;10.392;2023-02-15T16:37:18;9.80;7.00
10901;DHT22;5503;53.208;10.392;2023-02-15T16:39:47;9.20;9.40
10901;DHT22;5503;53.208;10.392;2023-02-15T16:42:15;10.60;8.90
10901;DHT22;5503;53.208;10.392;2023-02-15T16:44:45;8.90;10.50
10901;DHT22;5503;53.208;10.392;2023-02-15T16:47:16;8.90;10.60
10901;DHT22;5503;53.208;10.392;2023-02-15T16:49:46;8.90;10.60
10901;DHT22;5503;53.208;10.392;2023-02-15T16:52:19;8.90;11.00
10901;DHT22;5503;53.208;10.392;2023-02-15T16:54:53;8.80;12.40
10901;DHT22;5503;53.208;10.392;2023-02-15T16:57:24;9.40;10.40
10901;DHT22;5503;53.208;10.392;2023-02-15T16:59:56;8.70;9.80